sensor_id;sensor_type;location;lat;lon;timestamp;P1;durP1;ratioP1;P2;durP2;ratioP2
49217;SDS011;35045;51.194;7.268;2022-10-16T00:01:25;3.83;;;1.65;;
49217;SDS011;35045;51.194;7.268;2022-10-16T00:03:53;6.13;;;1.75;;
49217;SDS011;35045;51.194;7.268;2022-10-16T00:06:21;5.85;;;1.60;;
49217;SDS011;35045;51.194;7.268;2022-10-16T00:08:48;6.22;;;1.80;;
49217;SDS011;35045;51.194;7.268;2022-10-16T00:11:16;6.57;;;1.90;;
49217;SDS011;35045;51.194;7.268;2022-10-16T00:14:00;5.50;;;1.73;;
49217;SDS011;35045;51.194;7.268;2022-10-16T00:16:27;5.75;;;2.50;;
49217;SDS011;35045;51.194;7.268;2022-10-16T00:18:54;4.68;;;1.92;;
49217;SDS011;35045;51.194;7.268;2022-10-16T00:21:22;5.30;;;2.00;;
49217;SDS011;35045;51.194;7.268;2022-10-16T00:23:51;5.75;;;1.77;;
49217;SDS011;35045;51.194;7.268;2022-10-16T00:26:18;5.10;;;1.65;;
49217;SDS011;35045;51.194;7.268;2022-10-16T00:28:48;6.30;;;2.20;;
49217;SDS011;35045;51.194;7.268;2022-10-16T00:31:17;4.35;;;2.10;;
49217;SDS011;35045;51.194;7.268;2022-10-16T00:33:46;6.05;;;2.00;;
49217;SDS011;35045;51.194;7.268;2022-10-16T00:36:14;4.97;;;2.05;;
49217;SDS011;35045;51.194;7.268;2022-10-16T00:38:42;4.38;;;1.77;;
49217;SDS011;35045;51.194;7.268;2022-10-16T00:41:12;4.30;;;1.80;;
49217;SDS011;35045;51.194;7.268;2022-10-16T00:43:45;6.43;;;2.10;;
49217;SDS011;35045;51.194;7.268;2022-10-16T00:48:52;6.53;;;2.58;;
49217;SDS011;35045;51.194;7.268;2022-10-16T00:51:28;5.10;;;1.90;;
49217;SDS011;35045;51.194;7.268;2022-10-16T00:53:58;5.25;;;2.08;;
49217;SDS011;35045;51.194;7.268;2022-10-16T00:56:26;4.43;;;1.80;;
49217;SDS011;35045;51.194;7.268;2022-10-16T00:58:52;5.15;;;1.88;;
49217;SDS011;35045;51.194;7.268;2022-10-16T01:01:19;6.63;;;1.80;;
49217;SDS011;35045;51.194;7.268;2022-10-16T01:03:45;7.47;;;2.03;;
49217;SDS011;35045;51.194;7.268;2022-10-16T01:06:24;6.55;;;1.90;;
49217;SDS011;35045;51.194;7.268;2022-10-16T01:09:07;6.65;;;1.98;;
49217;SDS011;35045;51.194;7.268;2022-10-16T01:17:12;4.68;;;1.95;;
49217;SDS011;35045;51.194;7.268;2022-10-16T01:22:30;4.68;;;1.60;;
49217;SDS011;35045;51.194;7.268;2022-10-16T01:25:11;4.65;;;1.90;;
49217;SDS011;35045;51.194;7.268;2022-10-16T01:27:50;4.93;;;1.80;;
49217;SDS011;35045;51.194;7.268;2022-10-16T01:30:21;5.22;;;2.33;;
49217;SDS011;35045;51.194;7.268;2022-10-16T01:32:56;7.10;;;2.17;;
49217;SDS011;35045;51.194;7.268;2022-10-16T01:35:47;6.60;;;2.15;;
49217;SDS011;35045;51.194;7.268;2022-10-16T01:38:21;4.97;;;1.70;;
49217;SDS011;35045;51.194;7.268;2022-10-16T01:40:52;4.85;;;2.30;;
49217;SDS011;35045;51.194;7.268;2022-10-16T01:43:25;5.90;;;1.92;;
49217;SDS011;35045;51.194;7.268;2022-10-16T01:45:56;6.28;;;2.20;;
49217;SDS011;35045;51.194;7.268;2022-10-16T01:48:24;4.60;;;2.05;;
49217;SDS011;35045;51.194;7.268;2022-10-16T01:51:09;7.07;;;2.15;;
49217;SDS011;35045;51.194;7.268;2022-10-16T01:53:38;6.13;;;2.20;;
49217;SDS011;35045;51.194;7.268;2022-10-16T01:56:07;4.78;;;2.15;;
49217;SDS011;35045;51.194;7.268;2022-10-16T01:58:38;4.65;;;2.25;;
49217;SDS011;35045;51.194;7.268;2022-10-16T02:01:07;4.93;;;2.13;;
49217;SDS011;35045;51.194;7.268;2022-10-16T02:03:36;5.63;;;2.40;;
49217;SDS011;35045;51.194;7.268;2022-10-16T02:06:06;5.90;;;2.40;;
49217;SDS011;35045;51.194;7.268;2022-10-16T02:08:32;6.38;;;2.38;;
49217;SDS011;35045;51.194;7.268;2022-10-16T02:11:00;5.03;;;2.33;;
49217;SDS011;35045;51.194;7.268;2022-10-16T02:13:32;5.60;;;2.25;;
49217;SDS011;35045;51.194;7.268;2022-10-16T02:18:29;5.43;;;2.33;;
49217;SDS011;35045;51.194;7.268;2022-10-16T02:21:05;5.63;;;1.98;;
49217;SDS011;35045;51.194;7.268;2022-10-16T02:23:36;6.55;;;2.35;;
49217;SDS011;35045;51.194;7.268;2022-10-16T02:26:11;4.65;;;2.08;;
49217;SDS011;35045;51.194;7.268;2022-10-16T02:28:42;6.07;;;2.15;;
49217;SDS011;35045;51.194;7.268;2022-10-16T02:31:12;4.93;;;2.05;;
49217;SDS011;35045;51.194;7.268;2022-10-16T02:33:43;5.70;;;2.17;;
49217;SDS011;35045;51.194;7.268;2022-10-16T02:36:11;4.78;;;2.08;;
49217;SDS011;35045;51.194;7.268;2022-10-16T02:38:38;3.90;;;1.85;;
49217;SDS011;35045;51.194;7.268;2022-10-16T02:41:05;5.55;;;2.10;;
49217;SDS011;35045;51.194;7.268;2022-10-16T02:43:31;4.07;;;1.80;;
49217;SDS011;35045;51.194;7.268;2022-10-16T02:45:59;7.43;;;2.15;;
49217;SDS011;35045;51.194;7.268;2022-10-16T02:48:25;5.10;;;1.88;;
49217;SDS011;35045;51.194;7.268;2022-10-16T02:50:52;4.10;;;1.83;;
49217;SDS011;35045;51.194;7.268;2022-10-16T02:53:18;5.78;;;1.85;;
49217;SDS011;35045;51.194;7.268;2022-10-16T02:55:44;4.03;;;1.73;;
49217;SDS011;35045;51.194;7.268;2022-10-16T02:58:10;3.70;;;1.75;;
49217;SDS011;35045;51.194;7.268;2022-10-16T03:00:36;3.55;;;1.70;;
49217;SDS011;35045;51.194;7.268;2022-10-16T03:03:02;5.80;;;1.48;;
49217;SDS011;35045;51.194;7.268;2022-10-16T03:05:29;3.95;;;1.48;;
49217;SDS011;35045;51.194;7.268;2022-10-16T03:07:55;4.85;;;1.70;;
49217;SDS011;35045;51.194;7.268;2022-10-16T03:10:21;3.03;;;1.33;;
49217;SDS011;35045;51.194;7.268;2022-10-16T03:12:47;4.55;;;1.67;;
49217;SDS011;35045;51.194;7.268;2022-10-16T03:15:13;5.03;;;1.45;;
49217;SDS011;35045;51.194;7.268;2022-10-16T03:17:40;4.45;;;1.65;;
49217;SDS011;35045;51.194;7.268;2022-10-16T03:20:06;3.92;;;1.50;;
49217;SDS011;35045;51.194;7.268;2022-10-16T03:22:33;3.88;;;1.42;;
49217;SDS011;35045;51.194;7.268;2022-10-16T03:24:59;4.38;;;1.42;;
49217;SDS011;35045;51.194;7.268;2022-10-16T03:27:25;3.78;;;1.77;;
49217;SDS011;35045;51.194;7.268;2022-10-16T03:29:51;3.53;;;1.38;;
49217;SDS011;35045;51.194;7.268;2022-10-16T03:32:18;5.25;;;1.58;;
49217;SDS011;35045;51.194;7.268;2022-10-16T03:34:45;3.17;;;1.20;;
49217;SDS011;35045;51.194;7.268;2022-10-16T03:37:11;4.85;;;1.63;;
49217;SDS011;35045;51.194;7.268;2022-10-16T03:39:38;3.45;;;1.23;;
49217;SDS011;35045;51.194;7.268;2022-10-16T03:42:04;4.68;;;1.80;;
49217;SDS011;35045;51.194;7.268;2022-10-16T03:44:30;3.95;;;1.40;;
49217;SDS011;35045;51.194;7.268;2022-10-16T03:46:56;3.65;;;1.42;;
49217;SDS011;35045;51.194;7.268;2022-10-16T03:49:22;2.60;;;1.10;;
49217;SDS011;35045;51.194;7.268;2022-10-16T03:51:48;2.88;;;1.30;;
49217;SDS011;35045;51.194;7.268;2022-10-16T03:54:14;2.97;;;1.30;;
49217;SDS011;35045;51.194;7.268;2022-10-16T03:56:41;4.88;;;1.52;;
49217;SDS011;35045;51.194;7.268;2022-10-16T03:59:07;3.05;;;1.13;;
49217;SDS011;35045;51.194;7.268;2022-10-16T04:01:33;3.42;;;1.20;;
49217;SDS011;35045;51.194;7.268;2022-10-16T04:03:59;4.15;;;1.83;;
49217;SDS011;35045;51.194;7.268;2022-10-16T04:06:25;7.30;;;1.75;;
49217;SDS011;35045;51.194;7.268;2022-10-16T04:08:52;4.57;;;1.35;;
49217;SDS011;35045;51.194;7.268;2022-10-16T04:11:18;2.72;;;1.20;;
49217;SDS011;35045;51.194;7.268;2022-10-16T04:13:44;3.95;;;1.30;;
49217;SDS011;35045;51.194;7.268;2022-10-16T04:16:10;3.95;;;1.42;;
49217;SDS011;35045;51.194;7.268;2022-10-16T04:18:36;4.50;;;1.23;;
49217;SDS011;35045;51.194;7.268;2022-10-16T04:21:03;3.92;;;1.30;;
49217;SDS011;35045;51.194;7.268;2022-10-16T04:23:30;2.95;;;1.30;;
49217;SDS011;35045;51.194;7.268;2022-10-16T04:25:57;4.78;;;1.85;;
49217;SDS011;35045;51.194;7.268;2022-10-16T04:28:23;4.53;;;1.30;;
49217;SDS011;35045;51.194;7.268;2022-10-16T04:30:49;3.80;;;1.33;;
49217;SDS011;35045;51.194;7.268;2022-10-16T04:33:16;4.50;;;1.60;;
49217;SDS011;35045;51.194;7.268;2022-10-16T04:35:42;3.67;;;1.45;;
49217;SDS011;35045;51.194;7.268;2022-10-16T04:38:08;6.90;;;1.60;;
49217;SDS011;35045;51.194;7.268;2022-10-16T04:40:34;3.97;;;1.63;;
49217;SDS011;35045;51.194;7.268;2022-10-16T04:43:04;3.83;;;1.55;;
49217;SDS011;35045;51.194;7.268;2022-10-16T04:45:30;3.80;;;1.52;;
49217;SDS011;35045;51.194;7.268;2022-10-16T04:47:57;3.78;;;1.52;;
49217;SDS011;35045;51.194;7.268;2022-10-16T04:50:24;5.45;;;1.80;;
49217;SDS011;35045;51.194;7.268;2022-10-16T04:52:51;4.85;;;1.60;;
49217;SDS011;35045;51.194;7.268;2022-10-16T04:55:17;5.07;;;1.45;;
49217;SDS011;35045;51.194;7.268;2022-10-16T04:57:43;6.13;;;1.48;;
49217;SDS011;35045;51.194;7.268;2022-10-16T05:00:09;3.65;;;1.38;;
49217;SDS011;35045;51.194;7.268;2022-10-16T05:02:36;5.47;;;1.50;;
49217;SDS011;35045;51.194;7.268;2022-10-16T05:05:02;4.65;;;1.50;;
49217;SDS011;35045;51.194;7.268;2022-10-16T05:07:28;3.60;;;1.42;;
49217;SDS011;35045;51.194;7.268;2022-10-16T05:09:54;3.50;;;1.40;;
49217;SDS011;35045;51.194;7.268;2022-10-16T05:12:21;4.93;;;1.58;;
49217;SDS011;35045;51.194;7.268;2022-10-16T05:14:47;4.60;;;1.48;;
49217;SDS011;35045;51.194;7.268;2022-10-16T05:17:13;4.45;;;1.70;;
49217;SDS011;35045;51.194;7.268;2022-10-16T05:19:39;4.10;;;1.60;;
49217;SDS011;35045;51.194;7.268;2022-10-16T05:22:05;3.83;;;1.42;;
49217;SDS011;35045;51.194;7.268;2022-10-16T05:24:31;4.95;;;1.50;;
49217;SDS011;35045;51.194;7.268;2022-10-16T05:26:57;2.97;;;1.40;;
49217;SDS011;35045;51.194;7.268;2022-10-16T05:29:24;3.90;;;1.45;;
49217;SDS011;35045;51.194;7.268;2022-10-16T05:31:50;2.88;;;1.23;;
49217;SDS011;35045;51.194;7.268;2022-10-16T05:34:18;5.43;;;2.10;;
49217;SDS011;35045;51.194;7.268;2022-10-16T05:36:45;4.13;;;1.45;;
49217;SDS011;35045;51.194;7.268;2022-10-16T05:39:11;4.65;;;1.70;;
49217;SDS011;35045;51.194;7.268;2022-10-16T05:41:40;4.05;;;1.65;;
49217;SDS011;35045;51.194;7.268;2022-10-16T05:44:06;7.00;;;1.92;;
49217;SDS011;35045;51.194;7.268;2022-10-16T05:46:32;6.20;;;1.80;;
49217;SDS011;35045;51.194;7.268;2022-10-16T05:48:59;4.32;;;1.85;;
49217;SDS011;35045;51.194;7.268;2022-10-16T05:51:25;3.75;;;1.70;;
49217;SDS011;35045;51.194;7.268;2022-10-16T05:53:51;4.05;;;1.80;;
49217;SDS011;35045;51.194;7.268;2022-10-16T05:56:18;4.13;;;1.75;;
49217;SDS011;35045;51.194;7.268;2022-10-16T05:58:44;4.72;;;1.90;;
49217;SDS011;35045;51.194;7.268;2022-10-16T06:01:12;3.55;;;1.80;;
49217;SDS011;35045;51.194;7.268;2022-10-16T06:03:39;5.45;;;1.80;;
49217;SDS011;35045;51.194;7.268;2022-10-16T06:08:39;4.10;;;1.77;;
49217;SDS011;35045;51.194;7.268;2022-10-16T06:11:06;4.28;;;1.55;;
49217;SDS011;35045;51.194;7.268;2022-10-16T06:13:35;4.50;;;1.65;;
49217;SDS011;35045;51.194;7.268;2022-10-16T06:16:02;4.13;;;1.60;;
49217;SDS011;35045;51.194;7.268;2022-10-16T06:18:29;4.97;;;1.73;;
49217;SDS011;35045;51.194;7.268;2022-10-16T06:20:56;3.95;;;1.80;;
49217;SDS011;35045;51.194;7.268;2022-10-16T06:23:22;4.65;;;1.52;;
49217;SDS011;35045;51.194;7.268;2022-10-16T06:25:49;7.22;;;1.95;;
49217;SDS011;35045;51.194;7.268;2022-10-16T06:28:15;3.85;;;1.55;;
49217;SDS011;35045;51.194;7.268;2022-10-16T06:30:42;4.68;;;2.08;;
49217;SDS011;35045;51.194;7.268;2022-10-16T06:33:11;6.75;;;2.17;;
49217;SDS011;35045;51.194;7.268;2022-10-16T06:35:38;4.35;;;2.03;;
49217;SDS011;35045;51.194;7.268;2022-10-16T06:38:04;4.60;;;2.10;;
49217;SDS011;35045;51.194;7.268;2022-10-16T06:40:30;5.55;;;2.00;;
49217;SDS011;35045;51.194;7.268;2022-10-16T06:42:56;3.88;;;1.85;;
49217;SDS011;35045;51.194;7.268;2022-10-16T06:45:22;4.85;;;2.10;;
49217;SDS011;35045;51.194;7.268;2022-10-16T06:47:48;4.15;;;1.92;;
49217;SDS011;35045;51.194;7.268;2022-10-16T06:50:15;6.22;;;2.30;;
49217;SDS011;35045;51.194;7.268;2022-10-16T06:52:41;4.53;;;1.80;;
49217;SDS011;35045;51.194;7.268;2022-10-16T06:55:07;6.60;;;2.15;;
49217;SDS011;35045;51.194;7.268;2022-10-16T06:57:33;4.43;;;2.20;;
49217;SDS011;35045;51.194;7.268;2022-10-16T06:59:59;6.22;;;1.90;;
49217;SDS011;35045;51.194;7.268;2022-10-16T07:02:25;5.15;;;1.77;;
49217;SDS011;35045;51.194;7.268;2022-10-16T07:04:52;5.85;;;2.00;;
49217;SDS011;35045;51.194;7.268;2022-10-16T07:07:18;4.85;;;1.75;;
49217;SDS011;35045;51.194;7.268;2022-10-16T07:09:44;3.92;;;1.60;;
49217;SDS011;35045;51.194;7.268;2022-10-16T07:12:10;4.95;;;1.88;;
49217;SDS011;35045;51.194;7.268;2022-10-16T07:14:36;6.30;;;2.00;;
49217;SDS011;35045;51.194;7.268;2022-10-16T07:17:03;4.00;;;1.88;;
49217;SDS011;35045;51.194;7.268;2022-10-16T07:19:29;4.50;;;1.92;;
49217;SDS011;35045;51.194;7.268;2022-10-16T07:21:56;5.55;;;1.65;;
49217;SDS011;35045;51.194;7.268;2022-10-16T07:24:23;3.90;;;1.60;;
49217;SDS011;35045;51.194;7.268;2022-10-16T07:26:49;5.55;;;2.00;;
49217;SDS011;35045;51.194;7.268;2022-10-16T07:29:17;6.32;;;1.70;;
49217;SDS011;35045;51.194;7.268;2022-10-16T07:31:45;4.55;;;1.90;;
49217;SDS011;35045;51.194;7.268;2022-10-16T07:34:13;8.40;;;1.83;;
49217;SDS011;35045;51.194;7.268;2022-10-16T07:36:40;4.53;;;2.00;;
49217;SDS011;35045;51.194;7.268;2022-10-16T07:39:12;4.32;;;1.50;;
49217;SDS011;35045;51.194;7.268;2022-10-16T07:41:38;6.07;;;1.90;;
49217;SDS011;35045;51.194;7.268;2022-10-16T07:44:04;4.15;;;1.55;;
49217;SDS011;35045;51.194;7.268;2022-10-16T07:46:30;3.88;;;1.58;;
49217;SDS011;35045;51.194;7.268;2022-10-16T07:48:58;6.93;;;2.28;;
49217;SDS011;35045;51.194;7.268;2022-10-16T07:51:25;5.25;;;2.00;;
49217;SDS011;35045;51.194;7.268;2022-10-16T07:53:52;4.47;;;2.08;;
49217;SDS011;35045;51.194;7.268;2022-10-16T07:56:18;4.88;;;2.17;;
49217;SDS011;35045;51.194;7.268;2022-10-16T07:58:46;5.60;;;2.20;;
49217;SDS011;35045;51.194;7.268;2022-10-16T08:01:13;7.95;;;2.30;;
49217;SDS011;35045;51.194;7.268;2022-10-16T08:03:43;6.30;;;1.95;;
49217;SDS011;35045;51.194;7.268;2022-10-16T08:06:10;5.75;;;2.13;;
49217;SDS011;35045;51.194;7.268;2022-10-16T08:08:37;5.75;;;2.10;;
49217;SDS011;35045;51.194;7.268;2022-10-16T08:11:03;3.95;;;1.70;;
49217;SDS011;35045;51.194;7.268;2022-10-16T08:13:30;5.00;;;1.55;;
49217;SDS011;35045;51.194;7.268;2022-10-16T08:15:57;5.25;;;1.55;;
49217;SDS011;35045;51.194;7.268;2022-10-16T08:18:23;3.58;;;1.20;;
49217;SDS011;35045;51.194;7.268;2022-10-16T08:20:55;4.43;;;1.55;;
49217;SDS011;35045;51.194;7.268;2022-10-16T08:23:23;4.10;;;1.60;;
49217;SDS011;35045;51.194;7.268;2022-10-16T08:25:52;4.22;;;1.60;;
49217;SDS011;35045;51.194;7.268;2022-10-16T08:28:19;2.67;;;1.20;;
49217;SDS011;35045;51.194;7.268;2022-10-16T08:30:45;3.53;;;1.27;;
49217;SDS011;35045;51.194;7.268;2022-10-16T08:33:12;4.60;;;1.48;;
49217;SDS011;35045;51.194;7.268;2022-10-16T08:35:38;5.35;;;1.38;;
49217;SDS011;35045;51.194;7.268;2022-10-16T08:38:04;4.63;;;1.30;;
49217;SDS011;35045;51.194;7.268;2022-10-16T08:40:32;5.03;;;1.30;;
49217;SDS011;35045;51.194;7.268;2022-10-16T08:48:45;3.40;;;1.58;;
49217;SDS011;35045;51.194;7.268;2022-10-16T08:51:29;4.13;;;1.15;;
49217;SDS011;35045;51.194;7.268;2022-10-16T08:53:59;3.75;;;1.33;;
49217;SDS011;35045;51.194;7.268;2022-10-16T08:56:28;4.47;;;1.23;;
49217;SDS011;35045;51.194;7.268;2022-10-16T08:58:56;3.50;;;1.40;;
49217;SDS011;35045;51.194;7.268;2022-10-16T09:01:25;3.95;;;1.30;;
49217;SDS011;35045;51.194;7.268;2022-10-16T09:06:55;4.03;;;1.10;;
49217;SDS011;35045;51.194;7.268;2022-10-16T09:09:44;4.65;;;1.17;;
49217;SDS011;35045;51.194;7.268;2022-10-16T09:20:16;4.22;;;1.23;;
49217;SDS011;35045;51.194;7.268;2022-10-16T09:25:31;3.83;;;1.10;;
49217;SDS011;35045;51.194;7.268;2022-10-16T09:27:59;3.50;;;0.77;;
49217;SDS011;35045;51.194;7.268;2022-10-16T09:30:26;3.67;;;1.20;;
49217;SDS011;35045;51.194;7.268;2022-10-16T09:32:54;5.15;;;1.10;;
49217;SDS011;35045;51.194;7.268;2022-10-16T09:35:35;4.93;;;1.17;;
49217;SDS011;35045;51.194;7.268;2022-10-16T09:38:28;4.45;;;1.17;;
49217;SDS011;35045;51.194;7.268;2022-10-16T09:40:57;5.45;;;1.20;;
49217;SDS011;35045;51.194;7.268;2022-10-16T09:44:13;4.05;;;1.00;;
49217;SDS011;35045;51.194;7.268;2022-10-16T09:48:54;3.38;;;0.93;;
49217;SDS011;35045;51.194;7.268;2022-10-16T09:51:24;3.70;;;1.17;;
49217;SDS011;35045;51.194;7.268;2022-10-16T09:54:00;3.85;;;0.88;;
49217;SDS011;35045;51.194;7.268;2022-10-16T09:56:37;3.10;;;0.90;;
49217;SDS011;35045;51.194;7.268;2022-10-16T10:01:41;2.28;;;0.65;;
49217;SDS011;35045;51.194;7.268;2022-10-16T10:04:11;4.10;;;1.00;;
49217;SDS011;35045;51.194;7.268;2022-10-16T10:06:41;2.75;;;1.05;;
49217;SDS011;35045;51.194;7.268;2022-10-16T10:09:19;4.35;;;0.90;;
49217;SDS011;35045;51.194;7.268;2022-10-16T10:11:50;2.55;;;0.93;;
49217;SDS011;35045;51.194;7.268;2022-10-16T10:14:41;2.78;;;0.80;;
49217;SDS011;35045;51.194;7.268;2022-10-16T10:17:15;3.53;;;0.80;;
49217;SDS011;35045;51.194;7.268;2022-10-16T10:22:16;3.40;;;0.90;;
49217;SDS011;35045;51.194;7.268;2022-10-16T10:24:45;4.97;;;0.90;;
49217;SDS011;35045;51.194;7.268;2022-10-16T10:27:21;2.70;;;0.70;;
49217;SDS011;35045;51.194;7.268;2022-10-16T10:30:06;2.00;;;0.80;;
49217;SDS011;35045;51.194;7.268;2022-10-16T10:33:10;3.83;;;0.98;;
49217;SDS011;35045;51.194;7.268;2022-10-16T10:44:06;3.47;;;1.17;;
49217;SDS011;35045;51.194;7.268;2022-10-16T10:46:36;3.47;;;1.03;;
49217;SDS011;35045;51.194;7.268;2022-10-16T10:54:51;5.53;;;1.10;;
49217;SDS011;35045;51.194;7.268;2022-10-16T11:06:45;3.30;;;0.95;;
49217;SDS011;35045;51.194;7.268;2022-10-16T11:14:30;2.42;;;0.90;;
49217;SDS011;35045;51.194;7.268;2022-10-16T11:17:04;5.15;;;1.13;;
49217;SDS011;35045;51.194;7.268;2022-10-16T11:19:39;2.08;;;0.80;;
49217;SDS011;35045;51.194;7.268;2022-10-16T11:24:53;5.07;;;1.00;;
49217;SDS011;35045;51.194;7.268;2022-10-16T11:30:18;2.45;;;0.82;;
49217;SDS011;35045;51.194;7.268;2022-10-16T11:33:00;5.63;;;1.00;;
49217;SDS011;35045;51.194;7.268;2022-10-16T11:35:46;3.60;;;1.02;;
49217;SDS011;35045;51.194;7.268;2022-10-16T11:38:39;3.20;;;0.98;;
49217;SDS011;35045;51.194;7.268;2022-10-16T11:46:58;2.60;;;0.80;;
49217;SDS011;35045;51.194;7.268;2022-10-16T11:49:50;3.80;;;0.80;;
49217;SDS011;35045;51.194;7.268;2022-10-16T11:52:39;2.78;;;0.93;;
49217;SDS011;35045;51.194;7.268;2022-10-16T11:57:44;4.95;;;1.20;;
49217;SDS011;35045;51.194;7.268;2022-10-16T12:02:50;4.22;;;0.93;;
49217;SDS011;35045;51.194;7.268;2022-10-16T12:08:38;2.47;;;0.80;;
49217;SDS011;35045;51.194;7.268;2022-10-16T12:11:09;2.63;;;0.95;;
49217;SDS011;35045;51.194;7.268;2022-10-16T12:13:49;4.18;;;1.00;;
49217;SDS011;35045;51.194;7.268;2022-10-16T12:18:43;4.60;;;1.02;;
49217;SDS011;35045;51.194;7.268;2022-10-16T12:21:11;3.38;;;0.70;;
49217;SDS011;35045;51.194;7.268;2022-10-16T12:23:48;3.05;;;0.80;;
49217;SDS011;35045;51.194;7.268;2022-10-16T12:26:26;3.22;;;0.80;;
49217;SDS011;35045;51.194;7.268;2022-10-16T12:28:54;2.38;;;0.60;;
49217;SDS011;35045;51.194;7.268;2022-10-16T12:31:21;5.35;;;0.90;;
49217;SDS011;35045;51.194;7.268;2022-10-16T12:36:32;2.88;;;0.77;;
49217;SDS011;35045;51.194;7.268;2022-10-16T12:38:59;2.85;;;0.75;;
49217;SDS011;35045;51.194;7.268;2022-10-16T12:41:28;3.25;;;0.70;;
49217;SDS011;35045;51.194;7.268;2022-10-16T12:43:59;2.88;;;0.90;;
49217;SDS011;35045;51.194;7.268;2022-10-16T12:49:06;2.28;;;0.60;;
49217;SDS011;35045;51.194;7.268;2022-10-16T12:51:39;3.22;;;0.93;;
49217;SDS011;35045;51.194;7.268;2022-10-16T13:11:12;2.92;;;0.80;;
49217;SDS011;35045;51.194;7.268;2022-10-16T13:22:38;2.47;;;0.80;;
49217;SDS011;35045;51.194;7.268;2022-10-16T13:30:26;3.83;;;1.00;;
49217;SDS011;35045;51.194;7.268;2022-10-16T13:33:01;6.27;;;1.13;;
49217;SDS011;35045;51.194;7.268;2022-10-16T13:35:31;3.97;;;0.73;;
49217;SDS011;35045;51.194;7.268;2022-10-16T13:38:08;3.97;;;0.93;;
49217;SDS011;35045;51.194;7.268;2022-10-16T13:40:37;3.55;;;0.90;;
49217;SDS011;35045;51.194;7.268;2022-10-16T13:43:26;3.83;;;0.77;;
49217;SDS011;35045;51.194;7.268;2022-10-16T13:48:44;3.22;;;0.80;;
49217;SDS011;35045;51.194;7.268;2022-10-16T13:51:25;3.67;;;0.65;;
49217;SDS011;35045;51.194;7.268;2022-10-16T13:53:53;3.17;;;0.82;;
49217;SDS011;35045;51.194;7.268;2022-10-16T13:56:21;3.05;;;0.95;;
49217;SDS011;35045;51.194;7.268;2022-10-16T13:59:00;2.67;;;0.70;;
49217;SDS011;35045;51.194;7.268;2022-10-16T14:01:41;2.50;;;0.80;;
49217;SDS011;35045;51.194;7.268;2022-10-16T14:04:10;4.38;;;0.85;;
49217;SDS011;35045;51.194;7.268;2022-10-16T14:06:43;3.38;;;0.73;;
49217;SDS011;35045;51.194;7.268;2022-10-16T14:11:58;2.20;;;0.90;;
49217;SDS011;35045;51.194;7.268;2022-10-16T14:14:27;2.65;;;0.80;;
49217;SDS011;35045;51.194;7.268;2022-10-16T14:16:59;4.05;;;1.25;;
49217;SDS011;35045;51.194;7.268;2022-10-16T14:19:26;3.60;;;0.70;;
49217;SDS011;35045;51.194;7.268;2022-10-16T14:21:54;2.30;;;0.70;;
49217;SDS011;35045;51.194;7.268;2022-10-16T14:24:25;2.17;;;0.80;;
49217;SDS011;35045;51.194;7.268;2022-10-16T14:26:57;2.58;;;0.60;;
49217;SDS011;35045;51.194;7.268;2022-10-16T14:29:24;3.03;;;0.70;;
49217;SDS011;35045;51.194;7.268;2022-10-16T14:31:59;4.05;;;0.90;;
49217;SDS011;35045;51.194;7.268;2022-10-16T14:34:37;1.55;;;0.50;;
49217;SDS011;35045;51.194;7.268;2022-10-16T14:37:10;4.35;;;0.70;;
49217;SDS011;35045;51.194;7.268;2022-10-16T14:39:48;4.57;;;1.10;;
49217;SDS011;35045;51.194;7.268;2022-10-16T14:42:16;3.20;;;0.70;;
49217;SDS011;35045;51.194;7.268;2022-10-16T14:44:44;2.95;;;0.80;;
49217;SDS011;35045;51.194;7.268;2022-10-16T14:47:13;2.72;;;0.77;;
49217;SDS011;35045;51.194;7.268;2022-10-16T14:49:47;3.87;;;0.80;;
49217;SDS011;35045;51.194;7.268;2022-10-16T14:52:14;2.70;;;0.80;;
49217;SDS011;35045;51.194;7.268;2022-10-16T14:54:40;4.85;;;0.70;;
49217;SDS011;35045;51.194;7.268;2022-10-16T14:57:15;3.35;;;1.00;;
49217;SDS011;35045;51.194;7.268;2022-10-16T14:59:43;4.30;;;1.00;;
49217;SDS011;35045;51.194;7.268;2022-10-16T15:05:16;2.08;;;0.70;;
49217;SDS011;35045;51.194;7.268;2022-10-16T15:07:44;3.10;;;0.73;;
49217;SDS011;35045;51.194;7.268;2022-10-16T15:10:15;2.88;;;0.80;;
49217;SDS011;35045;51.194;7.268;2022-10-16T15:12:42;3.50;;;0.90;;
49217;SDS011;35045;51.194;7.268;2022-10-16T15:15:15;4.10;;;0.90;;
49217;SDS011;35045;51.194;7.268;2022-10-16T15:17:47;3.17;;;0.93;;
49217;SDS011;35045;51.194;7.268;2022-10-16T15:20:13;2.65;;;0.75;;
49217;SDS011;35045;51.194;7.268;2022-10-16T15:22:40;2.75;;;0.93;;
49217;SDS011;35045;51.194;7.268;2022-10-16T15:25:12;3.35;;;1.33;;
49217;SDS011;35045;51.194;7.268;2022-10-16T15:28:03;3.67;;;1.05;;
49217;SDS011;35045;51.194;7.268;2022-10-16T15:30:30;6.57;;;1.33;;
49217;SDS011;35045;51.194;7.268;2022-10-16T15:32:56;3.10;;;0.95;;
49217;SDS011;35045;51.194;7.268;2022-10-16T15:35:22;6.45;;;1.60;;
49217;SDS011;35045;51.194;7.268;2022-10-16T15:37:49;4.53;;;1.80;;
49217;SDS011;35045;51.194;7.268;2022-10-16T15:40:16;5.70;;;1.58;;
49217;SDS011;35045;51.194;7.268;2022-10-16T15:42:43;6.57;;;2.05;;
49217;SDS011;35045;51.194;7.268;2022-10-16T15:45:09;6.13;;;2.05;;
49217;SDS011;35045;51.194;7.268;2022-10-16T15:47:36;6.03;;;2.13;;
49217;SDS011;35045;51.194;7.268;2022-10-16T15:50:05;6.50;;;2.25;;
49217;SDS011;35045;51.194;7.268;2022-10-16T15:52:31;5.32;;;1.90;;
49217;SDS011;35045;51.194;7.268;2022-10-16T15:54:58;5.68;;;1.95;;
49217;SDS011;35045;51.194;7.268;2022-10-16T15:57:24;4.72;;;1.92;;
49217;SDS011;35045;51.194;7.268;2022-10-16T15:59:51;6.90;;;2.10;;
49217;SDS011;35045;51.194;7.268;2022-10-16T16:02:17;4.10;;;1.50;;
49217;SDS011;35045;51.194;7.268;2022-10-16T16:04:43;5.32;;;1.50;;
49217;SDS011;35045;51.194;7.268;2022-10-16T16:07:09;5.25;;;1.58;;
49217;SDS011;35045;51.194;7.268;2022-10-16T16:09:36;6.65;;;1.90;;
49217;SDS011;35045;51.194;7.268;2022-10-16T16:12:02;2.30;;;1.02;;
49217;SDS011;35045;51.194;7.268;2022-10-16T16:14:28;4.50;;;1.42;;
49217;SDS011;35045;51.194;7.268;2022-10-16T16:16:55;4.63;;;1.35;;
49217;SDS011;35045;51.194;7.268;2022-10-16T16:19:21;3.92;;;1.40;;
49217;SDS011;35045;51.194;7.268;2022-10-16T16:21:47;3.88;;;1.60;;
49217;SDS011;35045;51.194;7.268;2022-10-16T16:24:14;3.67;;;1.38;;
49217;SDS011;35045;51.194;7.268;2022-10-16T16:26:41;4.18;;;1.13;;
49217;SDS011;35045;51.194;7.268;2022-10-16T16:29:10;5.13;;;1.80;;
49217;SDS011;35045;51.194;7.268;2022-10-16T16:31:40;5.57;;;1.88;;
49217;SDS011;35045;51.194;7.268;2022-10-16T16:34:07;5.93;;;2.10;;
49217;SDS011;35045;51.194;7.268;2022-10-16T16:36:34;6.85;;;2.13;;
49217;SDS011;35045;51.194;7.268;2022-10-16T16:39:01;5.45;;;1.85;;
49217;SDS011;35045;51.194;7.268;2022-10-16T16:41:28;4.65;;;1.80;;
49217;SDS011;35045;51.194;7.268;2022-10-16T16:43:55;5.55;;;1.60;;
49217;SDS011;35045;51.194;7.268;2022-10-16T16:46:28;4.40;;;1.67;;
49217;SDS011;35045;51.194;7.268;2022-10-16T16:48:54;6.13;;;1.70;;
49217;SDS011;35045;51.194;7.268;2022-10-16T16:51:21;5.22;;;1.52;;
49217;SDS011;35045;51.194;7.268;2022-10-16T16:53:48;3.58;;;1.30;;
49217;SDS011;35045;51.194;7.268;2022-10-16T16:56:16;4.97;;;1.40;;
49217;SDS011;35045;51.194;7.268;2022-10-16T16:58:50;8.43;;;1.58;;
49217;SDS011;35045;51.194;7.268;2022-10-16T17:01:17;3.22;;;1.20;;
49217;SDS011;35045;51.194;7.268;2022-10-16T17:03:44;5.20;;;1.25;;
49217;SDS011;35045;51.194;7.268;2022-10-16T17:06:12;5.22;;;1.33;;
49217;SDS011;35045;51.194;7.268;2022-10-16T17:08:40;4.80;;;1.40;;
49217;SDS011;35045;51.194;7.268;2022-10-16T17:11:11;4.28;;;1.40;;
49217;SDS011;35045;51.194;7.268;2022-10-16T17:13:42;3.88;;;1.50;;
49217;SDS011;35045;51.194;7.268;2022-10-16T17:16:08;5.60;;;1.30;;
49217;SDS011;35045;51.194;7.268;2022-10-16T17:18:35;4.25;;;1.05;;
49217;SDS011;35045;51.194;7.268;2022-10-16T17:21:02;3.80;;;1.30;;